sensor_id;sensor_type;location;lat;lon;timestamp;P1;durP1;ratioP1;P2;durP2;ratioP2
72062;SDS011;59929;43.546;-5.702;2022-08-03T00:01:11;0.00;;;0.00;;
72062;SDS011;59929;43.546;-5.702;2022-08-03T00:03:40;0.00;;;0.00;;
72062;SDS011;59929;43.546;-5.702;2022-08-03T00:06:05;0.10;;;0.00;;
72062;SDS011;59929;43.546;-5.702;2022-08-03T00:08:31;0.00;;;0.00;;
72062;SDS011;59929;43.546;-5.702;2022-08-03T00:10:56;0.00;;;0.00;;
72062;SDS011;59929;43.546;-5.702;2022-08-03T00:13:22;0.00;;;0.00;;
72062;SDS011;59929;43.546;-5.702;2022-08-03T00:15:47;0.00;;;0.00;;
72062;SDS011;59929;43.546;-5.702;2022-08-03T00:18:13;0.00;;;0.00;;
72062;SDS011;59929;43.546;-5.702;2022-08-03T00:20:38;0.00;;;0.00;;
72062;SDS011;59929;43.546;-5.702;2022-08-03T00:23:04;0.00;;;0.00;;
72062;SDS011;59929;43.546;-5.702;2022-08-03T00:25:30;0.00;;;0.00;;
72062;SDS011;59929;43.546;-5.702;2022-08-03T00:27:56;0.00;;;0.00;;
72062;SDS011;59929;43.546;-5.702;2022-08-03T00:30:21;0.00;;;0.00;;
72062;SDS011;59929;43.546;-5.702;2022-08-03T00:32:47;0.00;;;0.00;;
72062;SDS011;59929;43.546;-5.702;2022-08-03T00:35:12;0.00;;;0.00;;
72062;SDS011;59929;43.546;-5.702;2022-08-03T00:37:38;0.00;;;0.00;;
72062;SDS011;59929;43.546;-5.702;2022-08-03T00:40:03;0.00;;;0.00;;
72062;SDS011;59929;43.546;-5.702;2022-08-03T00:42:29;0.00;;;0.00;;
72062;SDS011;59929;43.546;-5.702;2022-08-03T00:44:54;0.10;;;0.00;;
72062;SDS011;59929;43.546;-5.702;2022-08-03T00:47:19;0.00;;;0.00;;
72062;SDS011;59929;43.546;-5.702;2022-08-03T00:49:45;0.00;;;0.00;;
72062;SDS011;59929;43.546;-5.702;2022-08-03T00:52:10;0.00;;;0.00;;
72062;SDS011;59929;43.546;-5.702;2022-08-03T00:54:37;0.00;;;0.00;;
72062;SDS011;59929;43.546;-5.702;2022-08-03T00:57:03;0.10;;;0.00;;
72062;SDS011;59929;43.546;-5.702;2022-08-03T00:59:29;0.00;;;0.00;;
72062;SDS011;59929;43.546;-5.702;2022-08-03T01:01:56;0.00;;;0.00;;
72062;SDS011;59929;43.546;-5.702;2022-08-03T01:04:21;0.00;;;0.00;;
72062;SDS011;59929;43.546;-5.702;2022-08-03T01:06:49;0.00;;;0.00;;
72062;SDS011;59929;43.546;-5.702;2022-08-03T01:09:19;0.00;;;0.00;;
72062;SDS011;59929;43.546;-5.702;2022-08-03T01:11:49;0.00;;;0.00;;
72062;SDS011;59929;43.546;-5.702;2022-08-03T01:14:17;0.00;;;0.00;;
72062;SDS011;59929;43.546;-5.702;2022-08-03T01:24:49;0.00;;;0.00;;
72062;SDS011;59929;43.546;-5.702;2022-08-03T01:27:18;0.00;;;0.00;;
72062;SDS011;59929;43.546;-5.702;2022-08-03T01:35:10;0.10;;;0.00;;
72062;SDS011;59929;43.546;-5.702;2022-08-03T01:37:38;0.00;;;0.00;;
72062;SDS011;59929;43.546;-5.702;2022-08-03T01:40:05;0.00;;;0.00;;
72062;SDS011;59929;43.546;-5.702;2022-08-03T01:42:31;0.03;;;0.00;;
72062;SDS011;59929;43.546;-5.702;2022-08-03T01:44:56;0.00;;;0.00;;
72062;SDS011;59929;43.546;-5.702;2022-08-03T01:47:23;0.10;;;0.00;;
72062;SDS011;59929;43.546;-5.702;2022-08-03T01:49:49;0.10;;;0.00;;
72062;SDS011;59929;43.546;-5.702;2022-08-03T01:52:17;0.20;;;0.00;;
72062;SDS011;59929;43.546;-5.702;2022-08-03T01:54:44;0.10;;;0.00;;
72062;SDS011;59929;43.546;-5.702;2022-08-03T01:57:10;0.00;;;0.00;;
72062;SDS011;59929;43.546;-5.702;2022-08-03T01:59:37;0.00;;;0.00;;
72062;SDS011;59929;43.546;-5.702;2022-08-03T02:02:03;0.05;;;0.00;;
72062;SDS011;59929;43.546;-5.702;2022-08-03T02:04:29;0.00;;;0.00;;
72062;SDS011;59929;43.546;-5.702;2022-08-03T02:06:55;0.20;;;0.00;;
72062;SDS011;59929;43.546;-5.702;2022-08-03T02:09:21;0.08;;;0.00;;
72062;SDS011;59929;43.546;-5.702;2022-08-03T02:11:48;0.10;;;0.00;;
72062;SDS011;59929;43.546;-5.702;2022-08-03T02:14:15;0.00;;;0.00;;
72062;SDS011;59929;43.546;-5.702;2022-08-03T02:16:41;0.20;;;0.00;;
72062;SDS011;59929;43.546;-5.702;2022-08-03T02:19:07;0.07;;;0.00;;
72062;SDS011;59929;43.546;-5.702;2022-08-03T02:21:35;0.10;;;0.00;;
72062;SDS011;59929;43.546;-5.702;2022-08-03T02:24:01;0.00;;;0.00;;
72062;SDS011;59929;43.546;-5.702;2022-08-03T02:26:28;0.00;;;0.00;;
72062;SDS011;59929;43.546;-5.702;2022-08-03T02:28:55;0.00;;;0.00;;
72062;SDS011;59929;43.546;-5.702;2022-08-03T02:31:23;0.10;;;0.00;;
72062;SDS011;59929;43.546;-5.702;2022-08-03T02:33:51;0.00;;;0.00;;
72062;SDS011;59929;43.546;-5.702;2022-08-03T02:36:18;0.00;;;0.00;;
72062;SDS011;59929;43.546;-5.702;2022-08-03T02:38:44;0.00;;;0.00;;
72062;SDS011;59929;43.546;-5.702;2022-08-03T02:41:12;0.00;;;0.00;;
72062;SDS011;59929;43.546;-5.702;2022-08-03T02:43:39;0.00;;;0.00;;
72062;SDS011;59929;43.546;-5.702;2022-08-03T02:46:04;0.00;;;0.00;;
72062;SDS011;59929;43.546;-5.702;2022-08-03T02:48:31;0.00;;;0.00;;
72062;SDS011;59929;43.546;-5.702;2022-08-03T02:50:58;0.10;;;0.00;;
72062;SDS011;59929;43.546;-5.702;2022-08-03T02:53:25;0.00;;;0.00;;
72062;SDS011;59929;43.546;-5.702;2022-08-03T02:55:51;0.00;;;0.00;;
72062;SDS011;59929;43.546;-5.702;2022-08-03T02:58:18;0.05;;;0.00;;
72062;SDS011;59929;43.546;-5.702;2022-08-03T03:00:45;0.00;;;0.00;;
72062;SDS011;59929;43.546;-5.702;2022-08-03T03:03:11;0.00;;;0.00;;
72062;SDS011;59929;43.546;-5.702;2022-08-03T03:05:37;0.00;;;0.00;;
72062;SDS011;59929;43.546;-5.702;2022-08-03T03:08:03;0.00;;;0.00;;
72062;SDS011;59929;43.546;-5.702;2022-08-03T03:10:29;0.20;;;0.00;;
72062;SDS011;59929;43.546;-5.702;2022-08-03T03:12:55;0.00;;;0.00;;
72062;SDS011;59929;43.546;-5.702;2022-08-03T03:15:22;0.00;;;0.00;;
72062;SDS011;59929;43.546;-5.702;2022-08-03T03:17:48;0.00;;;0.00;;
72062;SDS011;59929;43.546;-5.702;2022-08-03T03:20:14;0.00;;;0.00;;
72062;SDS011;59929;43.546;-5.702;2022-08-03T03:22:40;0.00;;;0.00;;
72062;SDS011;59929;43.546;-5.702;2022-08-03T03:25:06;0.00;;;0.00;;
72062;SDS011;59929;43.546;-5.702;2022-08-03T03:27:32;0.00;;;0.00;;
72062;SDS011;59929;43.546;-5.702;2022-08-03T03:29:58;0.00;;;0.00;;
72062;SDS011;59929;43.546;-5.702;2022-08-03T03:32:25;0.00;;;0.00;;
72062;SDS011;59929;43.546;-5.702;2022-08-03T03:34:50;0.10;;;0.00;;
72062;SDS011;59929;43.546;-5.702;2022-08-03T03:37:16;0.10;;;0.00;;
72062;SDS011;59929;43.546;-5.702;2022-08-03T03:39:41;0.10;;;0.00;;
72062;SDS011;59929;43.546;-5.702;2022-08-03T03:42:07;0.20;;;0.00;;
72062;SDS011;59929;43.546;-5.702;2022-08-03T03:44:32;0.07;;;0.00;;
72062;SDS011;59929;43.546;-5.702;2022-08-03T03:46:58;0.00;;;0.00;;
72062;SDS011;59929;43.546;-5.702;2022-08-03T03:49:24;0.00;;;0.00;;
72062;SDS011;59929;43.546;-5.702;2022-08-03T03:51:52;0.00;;;0.00;;
72062;SDS011;59929;43.546;-5.702;2022-08-03T03:54:19;0.10;;;0.00;;
72062;SDS011;59929;43.546;-5.702;2022-08-03T03:56:45;0.10;;;0.00;;
72062;SDS011;59929;43.546;-5.702;2022-08-03T03:59:10;0.00;;;0.00;;
72062;SDS011;59929;43.546;-5.702;2022-08-03T04:01:37;0.00;;;0.00;;
72062;SDS011;59929;43.546;-5.702;2022-08-03T04:04:02;0.00;;;0.00;;
72062;SDS011;59929;43.546;-5.702;2022-08-03T04:06:47;0.00;;;0.00;;
72062;SDS011;59929;43.546;-5.702;2022-08-03T04:09:34;0.00;;;0.00;;
72062;SDS011;59929;43.546;-5.702;2022-08-03T04:12:11;0.00;;;0.00;;
72062;SDS011;59929;43.546;-5.702;2022-08-03T04:14:37;0.00;;;0.00;;
72062;SDS011;59929;43.546;-5.702;2022-08-03T04:17:04;0.00;;;0.00;;
72062;SDS011;59929;43.546;-5.702;2022-08-03T04:19:39;0.00;;;0.00;;
72062;SDS011;59929;43.546;-5.702;2022-08-03T04:22:08;0.00;;;0.00;;
72062;SDS011;59929;43.546;-5.702;2022-08-03T04:24:39;0.00;;;0.00;;
72062;SDS011;59929;43.546;-5.702;2022-08-03T04:27:06;0.00;;;0.00;;
72062;SDS011;59929;43.546;-5.702;2022-08-03T04:29:32;0.00;;;0.00;;
72062;SDS011;59929;43.546;-5.702;2022-08-03T04:31:59;0.00;;;0.00;;
72062;SDS011;59929;43.546;-5.702;2022-08-03T04:34:25;0.20;;;0.00;;
72062;SDS011;59929;43.546;-5.702;2022-08-03T04:36:51;0.00;;;0.00;;
72062;SDS011;59929;43.546;-5.702;2022-08-03T04:39:22;0.03;;;0.00;;
72062;SDS011;59929;43.546;-5.702;2022-08-03T04:41:50;0.00;;;0.00;;
72062;SDS011;59929;43.546;-5.702;2022-08-03T04:44:17;0.10;;;0.00;;
72062;SDS011;59929;43.546;-5.702;2022-08-03T04:46:43;0.08;;;0.00;;
72062;SDS011;59929;43.546;-5.702;2022-08-03T04:49:09;0.10;;;0.00;;
72062;SDS011;59929;43.546;-5.702;2022-08-03T04:51:35;0.22;;;0.00;;
72062;SDS011;59929;43.546;-5.702;2022-08-03T04:54:03;0.10;;;0.00;;
72062;SDS011;59929;43.546;-5.702;2022-08-03T04:56:28;0.13;;;0.00;;
72062;SDS011;59929;43.546;-5.702;2022-08-03T04:58:53;0.00;;;0.00;;
72062;SDS011;59929;43.546;-5.702;2022-08-03T05:01:19;0.00;;;0.00;;
72062;SDS011;59929;43.546;-5.702;2022-08-03T05:03:45;0.05;;;0.00;;
72062;SDS011;59929;43.546;-5.702;2022-08-03T05:06:11;0.00;;;0.00;;
72062;SDS011;59929;43.546;-5.702;2022-08-03T05:08:37;0.00;;;0.00;;
72062;SDS011;59929;43.546;-5.702;2022-08-03T05:11:02;0.00;;;0.00;;
72062;SDS011;59929;43.546;-5.702;2022-08-03T05:13:28;0.00;;;0.00;;
72062;SDS011;59929;43.546;-5.702;2022-08-03T05:15:53;0.00;;;0.00;;
72062;SDS011;59929;43.546;-5.702;2022-08-03T05:18:19;0.00;;;0.00;;
72062;SDS011;59929;43.546;-5.702;2022-08-03T05:20:44;0.00;;;0.00;;
72062;SDS011;59929;43.546;-5.702;2022-08-03T05:23:09;0.00;;;0.00;;
72062;SDS011;59929;43.546;-5.702;2022-08-03T05:25:35;0.00;;;0.00;;
72062;SDS011;59929;43.546;-5.702;2022-08-03T05:28:00;0.00;;;0.00;;
72062;SDS011;59929;43.546;-5.702;2022-08-03T05:30:26;0.00;;;0.00;;
72062;SDS011;59929;43.546;-5.702;2022-08-03T05:32:51;0.00;;;0.00;;
72062;SDS011;59929;43.546;-5.702;2022-08-03T05:35:17;0.00;;;0.00;;
72062;SDS011;59929;43.546;-5.702;2022-08-03T05:37:43;0.00;;;0.00;;
72062;SDS011;59929;43.546;-5.702;2022-08-03T05:40:08;0.00;;;0.00;;
72062;SDS011;59929;43.546;-5.702;2022-08-03T05:42:35;0.00;;;0.00;;
72062;SDS011;59929;43.546;-5.702;2022-08-03T05:45:03;0.00;;;0.00;;
72062;SDS011;59929;43.546;-5.702;2022-08-03T05:47:37;0.00;;;0.00;;
72062;SDS011;59929;43.546;-5.702;2022-08-03T05:50:02;0.00;;;0.00;;
72062;SDS011;59929;43.546;-5.702;2022-08-03T05:52:27;0.10;;;0.00;;
72062;SDS011;59929;43.546;-5.702;2022-08-03T05:54:53;0.00;;;0.00;;
72062;SDS011;59929;43.546;-5.702;2022-08-03T05:57:18;0.00;;;0.00;;
72062;SDS011;59929;43.546;-5.702;2022-08-03T05:59:44;0.00;;;0.00;;
72062;SDS011;59929;43.546;-5.702;2022-08-03T06:02:09;0.00;;;0.00;;
72062;SDS011;59929;43.546;-5.702;2022-08-03T06:04:34;0.00;;;0.00;;
72062;SDS011;59929;43.546;-5.702;2022-08-03T06:07:00;0.00;;;0.00;;
72062;SDS011;59929;43.546;-5.702;2022-08-03T06:09:25;0.00;;;0.00;;
72062;SDS011;59929;43.546;-5.702;2022-08-03T06:11:51;0.00;;;0.00;;
72062;SDS011;59929;43.546;-5.702;2022-08-03T06:14:16;0.10;;;0.00;;
72062;SDS011;59929;43.546;-5.702;2022-08-03T06:16:41;0.00;;;0.00;;
72062;SDS011;59929;43.546;-5.702;2022-08-03T06:19:07;0.00;;;0.00;;
72062;SDS011;59929;43.546;-5.702;2022-08-03T06:21:32;0.00;;;0.00;;
72062;SDS011;59929;43.546;-5.702;2022-08-03T06:23:58;0.03;;;0.00;;
72062;SDS011;59929;43.546;-5.702;2022-08-03T06:26:24;0.00;;;0.00;;
72062;SDS011;59929;43.546;-5.702;2022-08-03T06:28:49;0.00;;;0.00;;
72062;SDS011;59929;43.546;-5.702;2022-08-03T06:31:15;0.17;;;0.00;;
72062;SDS011;59929;43.546;-5.702;2022-08-03T06:33:40;0.07;;;0.00;;
72062;SDS011;59929;43.546;-5.702;2022-08-03T06:36:05;0.10;;;0.00;;
72062;SDS011;59929;43.546;-5.702;2022-08-03T06:38:31;0.00;;;0.00;;
72062;SDS011;59929;43.546;-5.702;2022-08-03T06:40:56;0.00;;;0.00;;
72062;SDS011;59929;43.546;-5.702;2022-08-03T06:43:22;0.00;;;0.00;;
72062;SDS011;59929;43.546;-5.702;2022-08-03T06:45:47;0.00;;;0.00;;
72062;SDS011;59929;43.546;-5.702;2022-08-03T06:48:13;0.00;;;0.00;;
72062;SDS011;59929;43.546;-5.702;2022-08-03T06:50:39;0.00;;;0.00;;
72062;SDS011;59929;43.546;-5.702;2022-08-03T06:53:05;0.00;;;0.00;;
72062;SDS011;59929;43.546;-5.702;2022-08-03T06:55:31;0.00;;;0.00;;
72062;SDS011;59929;43.546;-5.702;2022-08-03T06:57:57;0.00;;;0.00;;
72062;SDS011;59929;43.546;-5.702;2022-08-03T07:00:22;0.00;;;0.00;;
72062;SDS011;59929;43.546;-5.702;2022-08-03T07:02:47;0.00;;;0.00;;
72062;SDS011;59929;43.546;-5.702;2022-08-03T07:05:13;0.00;;;0.00;;
72062;SDS011;59929;43.546;-5.702;2022-08-03T07:07:39;0.00;;;0.00;;
72062;SDS011;59929;43.546;-5.702;2022-08-03T07:10:06;0.00;;;0.00;;
72062;SDS011;59929;43.546;-5.702;2022-08-03T07:12:31;0.00;;;0.00;;
72062;SDS011;59929;43.546;-5.702;2022-08-03T07:14:58;0.00;;;0.00;;
72062;SDS011;59929;43.546;-5.702;2022-08-03T07:17:24;0.00;;;0.00;;
72062;SDS011;59929;43.546;-5.702;2022-08-03T07:19:49;0.00;;;0.00;;
72062;SDS011;59929;43.546;-5.702;2022-08-03T07:22:15;0.00;;;0.00;;
72062;SDS011;59929;43.546;-5.702;2022-08-03T07:24:41;0.00;;;0.00;;
72062;SDS011;59929;43.546;-5.702;2022-08-03T07:27:07;0.00;;;0.00;;
72062;SDS011;59929;43.546;-5.702;2022-08-03T07:29:33;0.00;;;0.00;;
72062;SDS011;59929;43.546;-5.702;2022-08-03T07:31:58;0.20;;;0.00;;
72062;SDS011;59929;43.546;-5.702;2022-08-03T07:34:23;0.00;;;0.00;;
72062;SDS011;59929;43.546;-5.702;2022-08-03T07:36:49;0.00;;;0.00;;
72062;SDS011;59929;43.546;-5.702;2022-08-03T07:39:14;0.10;;;0.00;;
72062;SDS011;59929;43.546;-5.702;2022-08-03T07:41:40;0.00;;;0.00;;
72062;SDS011;59929;43.546;-5.702;2022-08-03T07:44:05;0.03;;;0.00;;
72062;SDS011;59929;43.546;-5.702;2022-08-03T07:46:30;0.10;;;0.00;;
72062;SDS011;59929;43.546;-5.702;2022-08-03T07:48:56;0.10;;;0.00;;
72062;SDS011;59929;43.546;-5.702;2022-08-03T07:51:22;0.00;;;0.00;;
72062;SDS011;59929;43.546;-5.702;2022-08-03T07:53:47;0.10;;;0.00;;
72062;SDS011;59929;43.546;-5.702;2022-08-03T07:56:13;0.00;;;0.00;;
72062;SDS011;59929;43.546;-5.702;2022-08-03T07:58:38;0.00;;;0.00;;
72062;SDS011;59929;43.546;-5.702;2022-08-03T08:01:04;0.13;;;0.00;;
72062;SDS011;59929;43.546;-5.702;2022-08-03T08:03:29;0.00;;;0.00;;
72062;SDS011;59929;43.546;-5.702;2022-08-03T08:05:55;0.10;;;0.00;;
72062;SDS011;59929;43.546;-5.702;2022-08-03T08:08:20;0.00;;;0.00;;
72062;SDS011;59929;43.546;-5.702;2022-08-03T08:10:46;0.10;;;0.00;;
72062;SDS011;59929;43.546;-5.702;2022-08-03T08:13:11;0.10;;;0.00;;
72062;SDS011;59929;43.546;-5.702;2022-08-03T08:15:37;0.20;;;0.00;;
72062;SDS011;59929;43.546;-5.702;2022-08-03T08:18:02;0.00;;;0.00;;
72062;SDS011;59929;43.546;-5.702;2022-08-03T08:20:29;0.10;;;0.00;;
72062;SDS011;59929;43.546;-5.702;2022-08-03T08:22:55;0.10;;;0.00;;
72062;SDS011;59929;43.546;-5.702;2022-08-03T08:25:22;0.10;;;0.00;;
72062;SDS011;59929;43.546;-5.702;2022-08-03T08:27:48;0.10;;;0.00;;
72062;SDS011;59929;43.546;-5.702;2022-08-03T08:30:15;0.10;;;0.00;;
72062;SDS011;59929;43.546;-5.702;2022-08-03T08:32:41;0.10;;;0.00;;
72062;SDS011;59929;43.546;-5.702;2022-08-03T08:35:07;0.03;;;0.00;;
72062;SDS011;59929;43.546;-5.702;2022-08-03T08:37:33;0.00;;;0.00;;
72062;SDS011;59929;43.546;-5.702;2022-08-03T08:39:59;0.00;;;0.00;;
72062;SDS011;59929;43.546;-5.702;2022-08-03T08:42:24;0.10;;;0.00;;
72062;SDS011;59929;43.546;-5.702;2022-08-03T08:44:50;0.00;;;0.00;;
72062;SDS011;59929;43.546;-5.702;2022-08-03T08:47:17;0.00;;;0.00;;
72062;SDS011;59929;43.546;-5.702;2022-08-03T08:49:43;0.00;;;0.00;;
72062;SDS011;59929;43.546;-5.702;2022-08-03T08:52:09;0.10;;;0.00;;
72062;SDS011;59929;43.546;-5.702;2022-08-03T08:54:35;0.10;;;0.00;;
72062;SDS011;59929;43.546;-5.702;2022-08-03T08:57:02;0.10;;;0.03;;
72062;SDS011;59929;43.546;-5.702;2022-08-03T08:59:28;0.10;;;0.00;;
72062;SDS011;59929;43.546;-5.702;2022-08-03T09:01:56;0.05;;;0.00;;
72062;SDS011;59929;43.546;-5.702;2022-08-03T09:04:22;0.08;;;0.00;;
72062;SDS011;59929;43.546;-5.702;2022-08-03T09:06:48;0.00;;;0.00;;
72062;SDS011;59929;43.546;-5.702;2022-08-03T09:09:13;0.00;;;0.00;;
72062;SDS011;59929;43.546;-5.702;2022-08-03T09:11:41;0.00;;;0.00;;
72062;SDS011;59929;43.546;-5.702;2022-08-03T09:14:07;0.10;;;0.00;;
72062;SDS011;59929;43.546;-5.702;2022-08-03T09:16:33;0.10;;;0.00;;
72062;SDS011;59929;43.546;-5.702;2022-08-03T09:19:02;0.00;;;0.00;;
72062;SDS011;59929;43.546;-5.702;2022-08-03T09:21:36;0.00;;;0.00;;
72062;SDS011;59929;43.546;-5.702;2022-08-03T09:24:02;0.00;;;0.00;;
72062;SDS011;59929;43.546;-5.702;2022-08-03T09:26:29;0.20;;;0.00;;
72062;SDS011;59929;43.546;-5.702;2022-08-03T09:28:56;0.10;;;0.00;;
72062;SDS011;59929;43.546;-5.702;2022-08-03T09:31:33;0.00;;;0.00;;
72062;SDS011;59929;43.546;-5.702;2022-08-03T09:34:00;0.10;;;0.00;;
72062;SDS011;59929;43.546;-5.702;2022-08-03T09:36:38;0.15;;;0.00;;
72062;SDS011;59929;43.546;-5.702;2022-08-03T09:39:05;0.20;;;0.00;;
72062;SDS011;59929;43.546;-5.702;2022-08-03T09:41:32;0.10;;;0.00;;
72062;SDS011;59929;43.546;-5.702;2022-08-03T09:43:57;0.10;;;0.00;;
72062;SDS011;59929;43.546;-5.702;2022-08-03T09:46:23;0.20;;;0.00;;
72062;SDS011;59929;43.546;-5.702;2022-08-03T09:48:48;0.10;;;0.00;;
72062;SDS011;59929;43.546;-5.702;2022-08-03T09:51:14;0.10;;;0.00;;
72062;SDS011;59929;43.546;-5.702;2022-08-03T09:53:43;0.10;;;0.00;;
72062;SDS011;59929;43.546;-5.702;2022-08-03T09:56:09;0.10;;;0.00;;
72062;SDS011;59929;43.546;-5.702;2022-08-03T09:58:42;0.00;;;0.00;;
72062;SDS011;59929;43.546;-5.702;2022-08-03T10:01:08;0.10;;;0.00;;
72062;SDS011;59929;43.546;-5.702;2022-08-03T10:03:35;0.10;;;0.00;;
72062;SDS011;59929;43.546;-5.702;2022-08-03T10:08:38;0.20;;;0.00;;
72062;SDS011;59929;43.546;-5.702;2022-08-03T10:11:03;0.10;;;0.00;;
72062;SDS011;59929;43.546;-5.702;2022-08-03T10:13:29;0.20;;;0.00;;
72062;SDS011;59929;43.546;-5.702;2022-08-03T10:15:54;0.10;;;0.00;;
72062;SDS011;59929;43.546;-5.702;2022-08-03T10:18:20;0.00;;;0.00;;
72062;SDS011;59929;43.546;-5.702;2022-08-03T10:20:48;0.00;;;0.00;;
72062;SDS011;59929;43.546;-5.702;2022-08-03T10:23:14;0.00;;;0.00;;
72062;SDS011;59929;43.546;-5.702;2022-08-03T10:25:40;0.00;;;0.00;;
72062;SDS011;59929;43.546;-5.702;2022-08-03T10:28:08;0.00;;;0.00;;
72062;SDS011;59929;43.546;-5.702;2022-08-03T10:30:36;0.00;;;0.00;;
72062;SDS011;59929;43.546;-5.702;2022-08-03T10:33:06;0.17;;;0.00;;
72062;SDS011;59929;43.546;-5.702;2022-08-03T10:35:33;0.00;;;0.00;;
72062;SDS011;59929;43.546;-5.702;2022-08-03T10:38:03;0.00;;;0.00;;
72062;SDS011;59929;43.546;-5.702;2022-08-03T10:40:32;0.10;;;0.00;;
72062;SDS011;59929;43.546;-5.702;2022-08-03T10:43:02;0.00;;;0.00;;
72062;SDS011;59929;43.546;-5.702;2022-08-03T10:45:28;0.00;;;0.00;;
72062;SDS011;59929;43.546;-5.702;2022-08-03T10:47:55;0.20;;;0.00;;
72062;SDS011;59929;43.546;-5.702;2022-08-03T10:50:22;0.17;;;0.00;;
72062;SDS011;59929;43.546;-5.702;2022-08-03T10:52:55;0.00;;;0.00;;
72062;SDS011;59929;43.546;-5.702;2022-08-03T10:55:28;0.10;;;0.00;;
72062;SDS011;59929;43.546;-5.702;2022-08-03T10:58:11;0.20;;;0.00;;
72062;SDS011;59929;43.546;-5.702;2022-08-03T11:00:47;0.00;;;0.00;;
72062;SDS011;59929;43.546;-5.702;2022-08-03T11:03:12;0.00;;;0.00;;
72062;SDS011;59929;43.546;-5.702;2022-08-03T11:08:25;0.20;;;0.00;;
72062;SDS011;59929;43.546;-5.702;2022-08-03T11:10:53;0.10;;;0.00;;
72062;SDS011;59929;43.546;-5.702;2022-08-03T11:13:20;0.00;;;0.00;;
72062;SDS011;59929;43.546;-5.702;2022-08-03T11:15:46;0.00;;;0.00;;
72062;SDS011;59929;43.546;-5.702;2022-08-03T11:18:12;0.00;;;0.00;;
72062;SDS011;59929;43.546;-5.702;2022-08-03T11:20:54;0.00;;;0.00;;
72062;SDS011;59929;43.546;-5.702;2022-08-03T11:26:08;0.00;;;0.00;;
72062;SDS011;59929;43.546;-5.702;2022-08-03T11:28:34;0.10;;;0.00;;
72062;SDS011;59929;43.546;-5.702;2022-08-03T11:33:45;0.10;;;0.00;;
72062;SDS011;59929;43.546;-5.702;2022-08-03T11:36:26;0.00;;;0.00;;
72062;SDS011;59929;43.546;-5.702;2022-08-03T11:41:32;0.40;;;0.00;;
72062;SDS011;59929;43.546;-5.702;2022-08-03T11:43:58;0.00;;;0.00;;
72062;SDS011;59929;43.546;-5.702;2022-08-03T11:46:24;0.00;;;0.00;;
72062;SDS011;59929;43.546;-5.702;2022-08-03T11:48:49;0.00;;;0.00;;
72062;SDS011;59929;43.546;-5.702;2022-08-03T11:51:19;0.00;;;0.00;;
72062;SDS011;59929;43.546;-5.702;2022-08-03T11:53:45;0.00;;;0.00;;
72062;SDS011;59929;43.546;-5.702;2022-08-03T11:56:12;0.00;;;0.00;;
72062;SDS011;59929;43.546;-5.702;2022-08-03T11:58:44;0.07;;;0.00;;
72062;SDS011;59929;43.546;-5.702;2022-08-03T12:01:10;0.00;;;0.00;;
72062;SDS011;59929;43.546;-5.702;2022-08-03T12:03:36;0.10;;;0.00;;
72062;SDS011;59929;43.546;-5.702;2022-08-03T12:06:01;0.10;;;0.00;;
72062;SDS011;59929;43.546;-5.702;2022-08-03T12:08:29;0.00;;;0.00;;
72062;SDS011;59929;43.546;-5.702;2022-08-03T12:10:56;0.08;;;0.00;;
72062;SDS011;59929;43.546;-5.702;2022-08-03T12:13:21;0.10;;;0.00;;
72062;SDS011;59929;43.546;-5.702;2022-08-03T12:15:51;0.07;;;0.00;;
72062;SDS011;59929;43.546;-5.702;2022-08-03T12:18:18;0.00;;;0.00;;
72062;SDS011;59929;43.546;-5.702;2022-08-03T12:20:45;0.10;;;0.00;;
72062;SDS011;59929;43.546;-5.702;2022-08-03T12:23:11;0.05;;;0.00;;
72062;SDS011;59929;43.546;-5.702;2022-08-03T12:25:37;0.10;;;0.00;;
72062;SDS011;59929;43.546;-5.702;2022-08-03T12:30:46;0.10;;;0.00;;
72062;SDS011;59929;43.546;-5.702;2022-08-03T12:33:13;0.10;;;0.10;;
72062;SDS011;59929;43.546;-5.702;2022-08-03T12:35:38;0.10;;;0.00;;
72062;SDS011;59929;43.546;-5.702;2022-08-03T12:38:04;0.10;;;0.00;;
72062;SDS011;59929;43.546;-5.702;2022-08-03T12:40:30;0.00;;;0.00;;
72062;SDS011;59929;43.546;-5.702;2022-08-03T12:42:55;0.10;;;0.10;;
72062;SDS011;59929;43.546;-5.702;2022-08-03T12:45:21;0.10;;;0.00;;
72062;SDS011;59929;43.546;-5.702;2022-08-03T12:47:49;0.10;;;0.00;;
72062;SDS011;59929;43.546;-5.702;2022-08-03T12:50:27;0.00;;;0.00;;
72062;SDS011;59929;43.546;-5.702;2022-08-03T12:52:53;0.00;;;0.00;;
72062;SDS011;59929;43.546;-5.702;2022-08-03T12:55:20;0.00;;;0.00;;
72062;SDS011;59929;43.546;-5.702;2022-08-03T12:57:45;0.10;;;0.00;;
72062;SDS011;59929;43.546;-5.702;2022-08-03T13:00:12;0.10;;;0.00;;
72062;SDS011;59929;43.546;-5.702;2022-08-03T13:02:37;0.10;;;0.00;;
72062;SDS011;59929;43.546;-5.702;2022-08-03T13:05:08;0.00;;;0.00;;
72062;SDS011;59929;43.546;-5.702;2022-08-03T13:07:39;0.10;;;0.10;;
72062;SDS011;59929;43.546;-5.702;2022-08-03T13:10:05;0.10;;;0.10;;
72062;SDS011;59929;43.546;-5.702;2022-08-03T13:12:31;0.00;;;0.00;;
72062;SDS011;59929;43.546;-5.702;2022-08-03T13:14:57;0.00;;;0.00;;
72062;SDS011;59929;43.546;-5.702;2022-08-03T13:17:23;0.07;;;0.00;;
72062;SDS011;59929;43.546;-5.702;2022-08-03T13:19:49;0.10;;;0.10;;
72062;SDS011;59929;43.546;-5.702;2022-08-03T13:22:16;0.00;;;0.00;;
72062;SDS011;59929;43.546;-5.702;2022-08-03T13:24:42;0.10;;;0.00;;
72062;SDS011;59929;43.546;-5.702;2022-08-03T13:27:08;0.10;;;0.00;;
72062;SDS011;59929;43.546;-5.702;2022-08-03T13:29:34;0.20;;;0.00;;
72062;SDS011;59929;43.546;-5.702;2022-08-03T13:32:01;0.10;;;0.10;;
72062;SDS011;59929;43.546;-5.702;2022-08-03T13:34:26;0.10;;;0.10;;
72062;SDS011;59929;43.546;-5.702;2022-08-03T13:36:52;0.10;;;0.00;;
72062;SDS011;59929;43.546;-5.702;2022-08-03T13:39:17;0.30;;;0.10;;
72062;SDS011;59929;43.546;-5.702;2022-08-03T13:41:44;0.20;;;0.10;;
72062;SDS011;59929;43.546;-5.702;2022-08-03T13:44:09;0.20;;;0.03;;
72062;SDS011;59929;43.546;-5.702;2022-08-03T13:46:34;0.20;;;0.10;;
72062;SDS011;59929;43.546;-5.702;2022-08-03T13:49:00;0.20;;;0.10;;
72062;SDS011;59929;43.546;-5.702;2022-08-03T13:51:25;0.20;;;0.10;;
72062;SDS011;59929;43.546;-5.702;2022-08-03T13:53:51;0.20;;;0.10;;
72062;SDS011;59929;43.546;-5.702;2022-08-03T13:56:16;0.20;;;0.10;;
72062;SDS011;59929;43.546;-5.702;2022-08-03T13:58:41;0.20;;;0.10;;
72062;SDS011;59929;43.546;-5.702;2022-08-03T14:01:07;0.20;;;0.10;;
72062;SDS011;59929;43.546;-5.702;2022-08-03T14:03:32;0.20;;;0.10;;
72062;SDS011;59929;43.546;-5.702;2022-08-03T14:05:58;0.20;;;0.10;;
72062;SDS011;59929;43.546;-5.702;2022-08-03T14:08:23;0.30;;;0.20;;
72062;SDS011;59929;43.546;-5.702;2022-08-03T14:10:49;0.40;;;0.20;;
72062;SDS011;59929;43.546;-5.702;2022-08-03T14:13:14;0.63;;;0.37;;
72062;SDS011;59929;43.546;-5.702;2022-08-03T14:15:40;0.50;;;0.30;;
72062;SDS011;59929;43.546;-5.702;2022-08-03T14:18:06;0.50;;;0.30;;
72062;SDS011;59929;43.546;-5.702;2022-08-03T14:20:31;0.40;;;0.20;;
72062;SDS011;59929;43.546;-5.702;2022-08-03T14:22:57;0.20;;;0.10;;
72062;SDS011;59929;43.546;-5.702;2022-08-03T14:25:23;0.20;;;0.10;;
72062;SDS011;59929;43.546;-5.702;2022-08-03T14:27:48;0.23;;;0.10;;
72062;SDS011;59929;43.546;-5.702;2022-08-03T14:30:13;0.30;;;0.10;;
72062;SDS011;59929;43.546;-5.702;2022-08-03T14:32:40;0.30;;;0.10;;
72062;SDS011;59929;43.546;-5.702;2022-08-03T14:35:06;0.20;;;0.10;;
72062;SDS011;59929;43.546;-5.702;2022-08-03T14:37:31;0.20;;;0.10;;
72062;SDS011;59929;43.546;-5.702;2022-08-03T14:39:57;0.20;;;0.10;;
72062;SDS011;59929;43.546;-5.702;2022-08-03T14:42:23;0.17;;;0.10;;
72062;SDS011;59929;43.546;-5.702;2022-08-03T14:44:48;0.10;;;0.00;;
72062;SDS011;59929;43.546;-5.702;2022-08-03T14:47:14;0.10;;;0.00;;
72062;SDS011;59929;43.546;-5.702;2022-08-03T14:49:39;0.10;;;0.00;;
72062;SDS011;59929;43.546;-5.702;2022-08-03T14:52:05;0.10;;;0.10;;
72062;SDS011;59929;43.546;-5.702;2022-08-03T14:54:30;0.10;;;0.00;;
72062;SDS011;59929;43.546;-5.702;2022-08-03T14:56:56;0.10;;;0.00;;
72062;SDS011;59929;43.546;-5.702;2022-08-03T14:59:21;0.10;;;0.00;;